createdAt,value
2022-07-25T00:00:01.784Z,3.63
2022-07-25T00:02:30.360Z,3.97
2022-07-25T00:05:00.038Z,4.10
2022-07-25T00:07:28.512Z,3.70
2022-07-25T00:09:56.888Z,4.00
2022-07-25T00:12:25.481Z,4.53
2022-07-25T00:14:54.079Z,4.50
2022-07-25T00:17:22.596Z,4.50
2022-07-25T00:19:50.979Z,4.38
2022-07-25T00:22:20.485Z,3.90
2022-07-25T00:24:48.932Z,4.00
2022-07-25T00:27:17.246Z,4.43
2022-07-25T00:29:45.669Z,4.47
2022-07-25T00:32:13.932Z,4.68
2022-07-25T00:34:42.624Z,4.75
2022-07-25T00:37:11.086Z,4.93
2022-07-25T00:39:40.684Z,4.75
2022-07-25T00:42:09.288Z,4.90
2022-07-25T00:44:37.572Z,5.55
2022-07-25T00:47:06.204Z,4.97
2022-07-25T00:49:34.555Z,5.35
2022-07-25T00:52:02.899Z,5.18
2022-07-25T00:54:31.957Z,5.30
2022-07-25T00:57:02.343Z,5.30
2022-07-25T00:59:30.741Z,5.55
2022-07-25T01:01:59.267Z,5.30
2022-07-25T01:04:32.216Z,5.32
2022-07-25T01:07:01.593Z,5.20
2022-07-25T01:09:30.652Z,5.50
2022-07-25T01:11:59.125Z,5.45
2022-07-25T01:14:28.982Z,5.47
2022-07-25T01:16:59.581Z,5.13
2022-07-25T01:19:28.075Z,5.03
2022-07-25T01:21:57.675Z,5.38
2022-07-25T01:24:26.089Z,5.28
2022-07-25T01:26:54.359Z,5.55
2022-07-25T01:29:22.965Z,6.63
2022-07-25T01:31:51.192Z,5.47
2022-07-25T01:34:19.768Z,5.43
2022-07-25T01:36:49.124Z,5.82
2022-07-25T01:39:18.773Z,6.13
2022-07-25T01:41:47.328Z,5.55
2022-07-25T01:44:17.262Z,5.78
2022-07-25T01:46:45.557Z,6.13
2022-07-25T01:49:14.303Z,5.53
2022-07-25T01:51:42.565Z,6.05
2022-07-25T01:54:11.030Z,5.43
2022-07-25T01:56:46.916Z,6.20
2022-07-25T01:59:17.189Z,5.68
2022-07-25T02:01:45.611Z,5.00
2022-07-25T02:04:14.215Z,5.60
2022-07-25T02:06:42.641Z,4.88
2022-07-25T02:09:11.154Z,5.32
2022-07-25T02:11:40.795Z,4.40
2022-07-25T02:14:09.603Z,3.42
2022-07-25T02:16:38.775Z,3.00
2022-07-25T02:19:07.378Z,2.05
2022-07-25T02:21:36.125Z,1.83
2022-07-25T02:24:05.412Z,2.38
2022-07-25T02:26:34.113Z,2.20
2022-07-25T02:29:03.772Z,2.63
2022-07-25T02:31:32.200Z,2.15
2022-07-25T02:34:00.424Z,2.40
2022-07-25T02:36:29.537Z,2.63
2022-07-25T02:38:57.768Z,2.78
2022-07-25T02:41:26.205Z,2.28
2022-07-25T02:43:54.648Z,2.30
2022-07-25T02:46:24.500Z,2.75
2022-07-25T02:48:53.024Z,2.75
2022-07-25T02:51:21.382Z,2.70
2022-07-25T02:53:58.495Z,3.17
2022-07-25T02:56:30.180Z,3.13
2022-07-25T02:59:00.298Z,3.03
2022-07-25T03:01:30.348Z,3.08
2022-07-25T03:03:58.965Z,3.05
2022-07-25T03:06:27.469Z,2.58
2022-07-25T03:08:55.872Z,2.47
2022-07-25T03:11:24.409Z,2.80
2022-07-25T03:13:52.953Z,2.85
2022-07-25T03:16:21.680Z,2.92
2022-07-25T03:18:51.490Z,3.17
2022-07-25T03:21:19.806Z,2.80
2022-07-25T03:23:52.419Z,2.75
2022-07-25T03:26:21.300Z,3.30
2022-07-25T03:28:49.767Z,3.15
2022-07-25T03:31:18.221Z,2.83
2022-07-25T03:33:47.047Z,3.40
2022-07-25T03:36:16.976Z,2.80
2022-07-25T03:38:45.509Z,3.00
2022-07-25T03:41:14.433Z,3.00
2022-07-25T03:43:42.822Z,3.42
2022-07-25T03:46:11.345Z,2.95
2022-07-25T03:48:39.881Z,3.92
2022-07-25T03:51:08.643Z,3.45
2022-07-25T03:53:52.623Z,3.53
2022-07-25T03:56:21.342Z,3.83
2022-07-25T03:58:49.691Z,3.63
2022-07-25T04:01:18.151Z,3.25
2022-07-25T04:03:47.723Z,3.88
2022-07-25T04:06:16.429Z,3.92
2022-07-25T04:08:46.171Z,3.40
2022-07-25T04:11:14.671Z,3.72
2022-07-25T04:13:43.085Z,3.65
2022-07-25T04:16:18.336Z,3.90
2022-07-25T04:18:51.800Z,4.35
2022-07-25T04:21:20.712Z,4.13
2022-07-25T04:23:50.731Z,5.07
2022-07-25T04:26:19.222Z,4.78
2022-07-25T04:28:47.637Z,4.72
2022-07-25T04:31:16.171Z,5.00
2022-07-25T04:33:44.794Z,5.07
2022-07-25T04:36:13.634Z,4.43
2022-07-25T04:38:42.113Z,4.25
2022-07-25T04:41:11.777Z,3.67
2022-07-25T04:43:43.657Z,3.00
2022-07-25T04:46:18.808Z,3.83
2022-07-25T04:48:47.290Z,3.83
2022-07-25T04:51:16.734Z,3.40
2022-07-25T04:53:45.234Z,3.72
2022-07-25T04:56:15.140Z,3.15
2022-07-25T04:58:43.705Z,3.35
2022-07-25T05:01:12.217Z,3.90
2022-07-25T05:03:40.621Z,3.10
2022-07-25T05:06:09.660Z,3.50
2022-07-25T05:08:38.094Z,3.70
2022-07-25T05:11:10.027Z,3.50
2022-07-25T05:13:39.578Z,3.50
2022-07-25T05:16:08.661Z,4.25
2022-07-25T05:18:37.039Z,3.28
2022-07-25T05:21:05.375Z,3.53
2022-07-25T05:23:33.658Z,2.95
2022-07-25T05:26:02.353Z,3.13
2022-07-25T05:28:30.875Z,3.35
2022-07-25T05:31:00.499Z,4.32
2022-07-25T05:33:28.960Z,4.53
2022-07-25T05:35:57.740Z,3.75
2022-07-25T05:38:26.227Z,3.97
2022-07-25T05:40:54.672Z,4.22
2022-07-25T05:43:23.035Z,4.80
2022-07-25T05:45:51.475Z,4.20
2022-07-25T05:48:21.096Z,4.90
2022-07-25T05:50:49.536Z,4.97
2022-07-25T05:53:17.925Z,4.60
2022-07-25T05:55:46.583Z,4.15
2022-07-25T05:58:14.894Z,3.75
2022-07-25T06:00:43.199Z,3.15
2022-07-25T06:03:11.640Z,3.35
2022-07-25T06:05:41.273Z,2.92
2022-07-25T06:08:09.597Z,3.85
2022-07-25T06:10:38.099Z,3.28
2022-07-25T06:13:06.607Z,3.65
2022-07-25T06:15:36.478Z,4.68
2022-07-25T06:18:04.976Z,5.18
2022-07-25T06:20:33.563Z,4.65
2022-07-25T06:23:05.215Z,4.43
2022-07-25T06:25:35.340Z,3.13
2022-07-25T06:28:03.675Z,2.70
2022-07-25T06:30:32.193Z,2.97
2022-07-25T06:33:00.653Z,3.90
2022-07-25T06:35:29.347Z,3.13
2022-07-25T06:37:57.740Z,3.38
2022-07-25T06:40:27.597Z,3.60
2022-07-25T06:42:56.092Z,3.40
2022-07-25T06:45:25.430Z,3.25
2022-07-25T06:47:54.048Z,3.53
2022-07-25T06:50:22.348Z,3.33
2022-07-25T06:52:50.866Z,2.85
2022-07-25T06:55:19.692Z,3.00
2022-07-25T06:57:49.334Z,4.03
2022-07-25T07:00:18.237Z,3.60
2022-07-25T07:02:56.020Z,4.68
2022-07-25T07:05:24.861Z,3.80
2022-07-25T07:07:53.890Z,4.20
2022-07-25T07:10:23.230Z,3.97
2022-07-25T07:13:03.309Z,4.53
2022-07-25T07:15:32.240Z,3.33
2022-07-25T07:18:00.530Z,3.80
2022-07-25T07:20:28.820Z,3.90
2022-07-25T07:22:57.239Z,4.05
2022-07-25T07:25:26.899Z,3.78
2022-07-25T07:27:58.268Z,3.97
2022-07-25T07:30:43.034Z,3.78
2022-07-25T07:33:14.932Z,4.05
2022-07-25T07:35:45.919Z,4.53
2022-07-25T07:38:14.908Z,4.30
2022-07-25T07:40:43.387Z,4.80
2022-07-25T07:43:13.077Z,4.70
2022-07-25T07:45:42.492Z,4.80
2022-07-25T07:48:10.833Z,4.30
2022-07-25T07:50:39.310Z,4.07
2022-07-25T07:53:07.949Z,4.18
2022-07-25T07:55:44.618Z,3.75
2022-07-25T07:58:16.696Z,4.70
2022-07-25T08:00:45.906Z,4.72
2022-07-25T08:03:14.537Z,3.88
2022-07-25T08:05:44.737Z,4.28
2022-07-25T08:08:15.724Z,4.70
2022-07-25T08:10:45.749Z,3.95
2022-07-25T08:13:16.884Z,5.45
2022-07-25T08:15:46.765Z,5.70
2022-07-25T08:18:16.948Z,5.15
2022-07-25T08:20:46.584Z,4.75
2022-07-25T08:23:15.218Z,5.00
2022-07-25T08:25:44.287Z,4.53
2022-07-25T08:28:13.080Z,5.13
2022-07-25T08:30:43.453Z,4.38
2022-07-25T08:33:16.036Z,4.78
2022-07-25T08:35:48.765Z,4.35
2022-07-25T08:38:18.261Z,4.68
2022-07-25T08:40:46.894Z,4.20
2022-07-25T08:43:16.579Z,3.92
2022-07-25T08:45:48.677Z,3.75
2022-07-25T08:48:19.851Z,4.70
2022-07-25T08:50:49.552Z,4.13
2022-07-25T08:53:35.542Z,4.15
2022-07-25T08:56:18.993Z,4.40
2022-07-25T08:58:49.651Z,4.18
2022-07-25T09:01:19.415Z,3.50
2022-07-25T09:03:47.864Z,3.78
2022-07-25T09:06:21.013Z,3.38
2022-07-25T09:08:57.035Z,2.90
2022-07-25T09:11:30.327Z,3.88
2022-07-25T09:14:04.896Z,3.05
2022-07-25T09:16:36.250Z,2.00
2022-07-25T09:19:12.962Z,2.40
2022-07-25T09:21:42.865Z,2.90
2022-07-25T09:24:16.061Z,3.42
2022-07-25T09:26:46.428Z,3.58
2022-07-25T09:29:18.995Z,2.58
2022-07-25T09:31:49.134Z,3.90
2022-07-25T09:34:34.652Z,3.75
2022-07-25T09:37:03.942Z,4.50
2022-07-25T09:39:45.885Z,3.10
2022-07-25T09:42:23.961Z,3.45
2022-07-25T09:45:07.671Z,3.42
2022-07-25T09:47:39.731Z,4.03
2022-07-25T09:50:09.284Z,3.40
2022-07-25T09:52:39.365Z,2.90
2022-07-25T09:55:10.234Z,2.78
2022-07-25T09:57:38.879Z,2.83
2022-07-25T10:00:09.626Z,1.92
2022-07-25T10:02:51.187Z,3.13
2022-07-25T10:05:29.726Z,2.25
2022-07-25T10:07:58.787Z,2.38
2022-07-25T10:10:29.011Z,2.58
2022-07-25T10:13:10.244Z,2.80
2022-07-25T10:15:44.070Z,3.83
2022-07-25T10:18:15.095Z,3.38
2022-07-25T10:20:43.760Z,2.75
2022-07-25T10:23:23.344Z,2.83
2022-07-25T10:26:10.538Z,3.25
2022-07-25T10:28:41.668Z,2.50
2022-07-25T10:31:18.465Z,2.78
2022-07-25T10:33:52.736Z,2.55
2022-07-25T10:36:22.761Z,2.17
2022-07-25T10:38:54.368Z,2.00
2022-07-25T10:41:27.110Z,1.63
2022-07-25T10:43:58.886Z,2.45
2022-07-25T10:46:30.933Z,2.47
2022-07-25T10:49:02.379Z,2.17
2022-07-25T10:51:32.806Z,2.45
2022-07-25T10:54:01.517Z,1.70
2022-07-25T10:56:30.699Z,1.38
2022-07-25T10:59:00.916Z,1.35
2022-07-25T11:01:30.996Z,2.15
2022-07-25T11:04:02.492Z,2.03
2022-07-25T11:06:33.319Z,1.60
2022-07-25T11:09:02.395Z,1.13
2022-07-25T11:11:41.104Z,1.35
2022-07-25T11:14:16.965Z,1.73
2022-07-25T11:16:46.256Z,1.50
2022-07-25T11:19:21.360Z,1.17
2022-07-25T11:21:51.858Z,2.22
2022-07-25T11:24:20.410Z,2.05
2022-07-25T11:26:50.119Z,1.52
2022-07-25T11:29:23.879Z,2.22
2022-07-25T11:31:57.339Z,2.92
2022-07-25T11:34:31.734Z,2.13
2022-07-25T11:37:04.883Z,2.55
2022-07-25T11:39:34.619Z,2.63
2022-07-25T11:42:05.187Z,2.13
2022-07-25T11:44:38.171Z,2.92
2022-07-25T11:47:07.806Z,2.38
2022-07-25T11:49:47.549Z,2.70
2022-07-25T11:52:23.723Z,2.17
2022-07-25T11:54:57.104Z,2.70
2022-07-25T11:57:26.356Z,2.50
2022-07-25T11:59:55.134Z,2.20
2022-07-25T12:02:24.759Z,2.00
2022-07-25T12:04:59.524Z,1.95
2022-07-25T12:07:45.767Z,2.28
2022-07-25T12:10:17.939Z,1.98
2022-07-25T12:12:49.741Z,2.13
2022-07-25T12:15:21.123Z,2.38
2022-07-25T12:17:49.573Z,1.85
2022-07-25T12:20:21.823Z,2.17
2022-07-25T12:22:51.274Z,2.80
2022-07-25T12:25:19.699Z,2.05
2022-07-25T12:27:47.935Z,1.17
2022-07-25T12:30:16.760Z,2.05
2022-07-25T12:32:45.244Z,1.10
2022-07-25T12:35:15.190Z,1.30
2022-07-25T12:37:45.550Z,1.42
2022-07-25T12:40:15.674Z,1.40
2022-07-25T12:42:44.161Z,1.65
2022-07-25T12:45:13.885Z,0.73
2022-07-25T12:47:43.492Z,0.85
2022-07-25T12:50:12.346Z,1.42
2022-07-25T12:52:40.765Z,1.85
2022-07-25T12:55:13.279Z,0.77
2022-07-25T12:57:41.692Z,1.98
2022-07-25T13:00:12.963Z,1.05
2022-07-25T13:02:41.514Z,1.20
2022-07-25T13:05:10.348Z,1.25
2022-07-25T13:07:39.096Z,0.88
2022-07-25T13:10:10.290Z,1.20
2022-07-25T13:12:38.742Z,1.00
2022-07-25T13:15:08.367Z,1.10
2022-07-25T13:17:37.300Z,0.90
2022-07-25T13:20:06.270Z,0.80
2022-07-25T13:22:34.753Z,1.23
2022-07-25T13:25:03.124Z,1.25
2022-07-25T13:27:33.123Z,0.90
2022-07-25T13:30:01.626Z,0.65
2022-07-25T13:32:31.830Z,0.98
2022-07-25T13:35:00.387Z,1.27
2022-07-25T13:37:28.820Z,1.25
2022-07-25T13:39:57.270Z,0.93
2022-07-25T13:42:25.760Z,0.90
2022-07-25T13:44:55.401Z,0.82
2022-07-25T13:47:28.420Z,0.85
2022-07-25T13:49:58.763Z,0.90
2022-07-25T13:52:27.071Z,0.98
2022-07-25T13:54:59.109Z,1.30
2022-07-25T13:57:27.614Z,1.25
2022-07-25T13:59:57.299Z,2.28
2022-07-25T14:02:25.813Z,2.60
2022-07-25T14:04:54.331Z,2.53
2022-07-25T14:07:24.626Z,2.65
2022-07-25T14:09:53.077Z,2.03
2022-07-25T14:12:21.614Z,2.30
2022-07-25T14:14:50.375Z,1.92
2022-07-25T14:17:20.138Z,1.65
2022-07-25T14:19:48.443Z,1.35
2022-07-25T14:22:17.090Z,1.42
2022-07-25T14:24:45.614Z,1.63
2022-07-25T14:27:14.291Z,1.85
2022-07-25T14:29:42.574Z,1.70
2022-07-25T14:32:10.995Z,2.05
2022-07-25T14:34:41.382Z,1.30
2022-07-25T14:37:09.757Z,1.70
2022-07-25T14:39:38.513Z,0.73
2022-07-25T14:42:11.256Z,1.58
2022-07-25T14:44:39.985Z,1.08
2022-07-25T14:47:12.300Z,0.90
2022-07-25T14:49:43.601Z,1.10
2022-07-25T14:52:14.352Z,1.02
2022-07-25T14:54:43.065Z,1.40
2022-07-25T14:57:11.688Z,1.15
2022-07-25T14:59:40.041Z,1.55
2022-07-25T15:02:09.054Z,1.40
2022-07-25T15:04:37.458Z,1.95
2022-07-25T15:07:07.640Z,1.90
2022-07-25T15:09:36.113Z,1.67
2022-07-25T15:12:04.712Z,2.03
2022-07-25T15:14:33.475Z,2.38
2022-07-25T15:17:01.883Z,2.22
2022-07-25T15:19:30.660Z,1.95
2022-07-25T15:21:59.366Z,1.75
2022-07-25T15:24:29.433Z,1.60
2022-07-25T15:26:58.178Z,1.30
2022-07-25T15:29:27.900Z,1.20
2022-07-25T15:31:56.643Z,1.60
2022-07-25T15:34:25.390Z,2.17
2022-07-25T15:36:55.241Z,2.28
2022-07-25T15:39:23.692Z,1.60
2022-07-25T15:41:53.246Z,2.28
2022-07-25T15:44:21.953Z,2.53
2022-07-25T15:46:50.358Z,2.55
2022-07-25T15:49:18.951Z,2.55
2022-07-25T15:51:47.716Z,2.38
2022-07-25T15:54:15.995Z,2.50
2022-07-25T15:56:44.686Z,2.40
2022-07-25T15:59:14.458Z,1.83
2022-07-25T16:01:43.511Z,1.10
2022-07-25T16:04:12.256Z,2.13
2022-07-25T16:06:40.877Z,2.10
2022-07-25T16:09:10.246Z,1.83
2022-07-25T16:11:39.022Z,2.40
2022-07-25T16:14:09.014Z,2.35
2022-07-25T16:16:39.235Z,1.80
2022-07-25T16:19:09.756Z,2.67
2022-07-25T16:21:39.902Z,2.17
2022-07-25T16:24:09.401Z,2.35
2022-07-25T16:26:37.981Z,2.08
2022-07-25T16:29:07.393Z,2.28
2022-07-25T16:31:36.129Z,2.50
2022-07-25T16:34:05.976Z,2.10
2022-07-25T16:36:34.784Z,2.92
2022-07-25T16:39:04.080Z,2.80
2022-07-25T16:41:32.563Z,1.67
2022-07-25T16:44:01.190Z,2.33
2022-07-25T16:46:29.862Z,2.03
2022-07-25T16:48:58.346Z,2.25
2022-07-25T16:51:28.165Z,2.10
2022-07-25T16:53:56.742Z,1.90
2022-07-25T16:56:25.550Z,2.10
2022-07-25T16:58:54.316Z,3.08
2022-07-25T17:01:24.885Z,2.22
2022-07-25T17:03:53.684Z,1.90
2022-07-25T17:06:22.314Z,2.03
2022-07-25T17:08:52.105Z,2.50
2022-07-25T17:11:20.914Z,12.05
2022-07-25T17:13:49.224Z,28.70
2022-07-25T17:16:17.957Z,28.73
2022-07-25T17:18:46.487Z,6.43
2022-07-25T17:21:16.790Z,25.48
2022-07-25T17:23:45.198Z,8.00
2022-07-25T17:26:15.061Z,11.68
2022-07-25T17:28:43.501Z,6.15
2022-07-25T17:31:12.039Z,14.88
2022-07-25T17:33:40.600Z,6.88
2022-07-25T17:36:09.467Z,7.50
2022-07-25T17:38:38.432Z,2.50
2022-07-25T17:41:07.031Z,7.30
2022-07-25T17:43:37.038Z,3.42
2022-07-25T17:46:05.476Z,1.98
2022-07-25T17:48:33.969Z,2.78
2022-07-25T17:51:02.609Z,5.68
2022-07-25T17:53:31.250Z,4.30
2022-07-25T17:55:59.734Z,6.80
2022-07-25T17:58:28.292Z,3.33
2022-07-25T18:01:01.108Z,2.70
2022-07-25T18:03:29.790Z,4.70
2022-07-25T18:05:58.868Z,4.57
2022-07-25T18:08:30.625Z,3.70
2022-07-25T18:10:58.880Z,3.72
2022-07-25T18:13:27.243Z,4.38
2022-07-25T18:15:57.574Z,4.22
2022-07-25T18:18:26.061Z,3.67
2022-07-25T18:20:54.336Z,3.00
2022-07-25T18:23:24.265Z,3.63
2022-07-25T18:25:53.774Z,3.72
2022-07-25T18:28:22.689Z,3.15
2022-07-25T18:30:55.055Z,3.10
2022-07-25T18:33:25.630Z,4.53
2022-07-25T18:35:54.407Z,2.63
2022-07-25T18:38:22.791Z,3.22
2022-07-25T18:41:06.591Z,3.35
2022-07-25T18:43:39.711Z,3.28
2022-07-25T18:46:10.199Z,2.97
2022-07-25T18:48:41.703Z,3.40
2022-07-25T18:51:10.400Z,3.40
2022-07-25T18:53:39.219Z,3.28
2022-07-25T18:56:08.107Z,2.80
2022-07-25T18:58:36.910Z,3.08
2022-07-25T19:01:05.379Z,3.65
2022-07-25T19:03:34.937Z,2.80
2022-07-25T19:06:05.004Z,3.17
2022-07-25T19:08:33.974Z,3.22
2022-07-25T19:11:02.370Z,2.67
2022-07-25T19:13:49.085Z,2.92
2022-07-25T19:16:18.637Z,2.70
2022-07-25T19:18:47.375Z,2.95
2022-07-25T19:21:17.078Z,3.47
2022-07-25T19:23:50.761Z,3.08
2022-07-25T19:26:19.605Z,3.17
2022-07-25T19:28:48.132Z,2.88
2022-07-25T19:31:16.667Z,3.63
2022-07-25T19:33:46.267Z,2.63
2022-07-25T19:36:16.469Z,2.50
2022-07-25T19:38:44.852Z,2.47
2022-07-25T19:41:14.478Z,2.78
2022-07-25T19:43:42.926Z,2.60
2022-07-25T19:46:11.392Z,2.80
2022-07-25T19:48:40.073Z,2.38
2022-07-25T19:51:08.706Z,2.33
2022-07-25T19:53:38.732Z,2.42
2022-07-25T19:56:08.494Z,2.60
2022-07-25T19:58:39.072Z,2.90
2022-07-25T20:01:12.347Z,2.60
2022-07-25T20:03:41.412Z,2.78
2022-07-25T20:06:10.544Z,2.75
2022-07-25T20:08:40.587Z,3.05
2022-07-25T20:11:09.004Z,2.25
2022-07-25T20:13:37.501Z,2.67
2022-07-25T20:16:06.853Z,2.15
2022-07-25T20:18:35.395Z,2.85
2022-07-25T20:21:03.970Z,2.35
2022-07-25T20:23:32.388Z,2.22
2022-07-25T20:26:02.465Z,2.72
2022-07-25T20:28:31.183Z,2.70
2022-07-25T20:31:01.834Z,2.70
2022-07-25T20:33:30.669Z,3.35
2022-07-25T20:35:59.994Z,3.20
2022-07-25T20:38:31.100Z,2.47
2022-07-25T20:40:59.525Z,2.60
2022-07-25T20:43:29.914Z,3.22
2022-07-25T20:45:59.129Z,3.40
2022-07-25T20:48:27.604Z,2.67
2022-07-25T20:50:55.981Z,3.17
2022-07-25T20:53:24.693Z,3.00
2022-07-25T20:55:53.767Z,3.47
2022-07-25T20:58:22.325Z,2.90
2022-07-25T21:00:51.976Z,3.13
2022-07-25T21:03:20.534Z,3.33
2022-07-25T21:05:49.149Z,3.30
2022-07-25T21:08:17.808Z,3.35
2022-07-25T21:10:46.135Z,3.22
2022-07-25T21:13:14.617Z,3.08
2022-07-25T21:15:46.930Z,3.28
2022-07-25T21:18:16.713Z,3.60
2022-07-25T21:20:47.225Z,3.30
2022-07-25T21:23:15.740Z,4.13
2022-07-25T21:25:44.137Z,3.70
2022-07-25T21:28:12.724Z,3.55
2022-07-25T21:30:42.619Z,3.88
2022-07-25T21:33:14.864Z,3.80
2022-07-25T21:35:49.337Z,3.80
2022-07-25T21:38:26.132Z,3.97
2022-07-25T21:40:56.624Z,4.40
2022-07-25T21:43:25.517Z,3.63
2022-07-25T21:45:54.051Z,3.58
2022-07-25T21:48:43.313Z,3.92
2022-07-25T21:51:18.718Z,4.25
2022-07-25T21:53:51.774Z,4.45
2022-07-25T21:56:20.944Z,4.00
2022-07-25T21:58:49.804Z,4.00
2022-07-25T22:01:20.825Z,4.50
2022-07-25T22:03:49.286Z,4.32
2022-07-25T22:06:19.670Z,3.83
2022-07-25T22:08:48.090Z,3.88
2022-07-25T22:11:38.674Z,4.43
2022-07-25T22:14:05.826Z,4.22
2022-07-25T22:16:34.819Z,4.22
2022-07-25T22:19:03.474Z,3.60
2022-07-25T22:21:33.131Z,4.47
2022-07-25T22:24:01.518Z,4.03
2022-07-25T22:26:29.827Z,4.47
2022-07-25T22:28:58.262Z,4.03
2022-07-25T22:31:26.695Z,4.57
2022-07-25T22:33:55.342Z,5.28
2022-07-25T22:36:24.133Z,3.80
2022-07-25T22:38:53.792Z,3.85
2022-07-25T22:41:22.135Z,4.55
2022-07-25T22:43:58.841Z,4.70
2022-07-25T22:46:28.440Z,4.53
2022-07-25T22:48:57.556Z,4.20
2022-07-25T22:51:26.464Z,4.25
2022-07-25T22:53:56.425Z,4.32
2022-07-25T22:56:25.554Z,4.97
2022-07-25T22:58:54.388Z,4.82
2022-07-25T23:01:23.198Z,4.85
2022-07-25T23:03:51.778Z,4.10
2022-07-25T23:06:21.298Z,3.90
2022-07-25T23:08:50.066Z,4.57
2022-07-25T23:11:19.981Z,3.88
2022-07-25T23:13:48.438Z,4.45
2022-07-25T23:16:17.411Z,4.05
2022-07-25T23:18:47.181Z,3.50
2022-07-25T23:21:15.599Z,3.25
2022-07-25T23:23:44.028Z,3.47
2022-07-25T23:26:12.584Z,3.30
2022-07-25T23:28:42.128Z,3.72
2022-07-25T23:31:10.870Z,2.47
2022-07-25T23:33:39.293Z,2.70
2022-07-25T23:36:08.276Z,2.47
2022-07-25T23:38:36.677Z,2.40
2022-07-25T23:41:05.322Z,2.70
2022-07-25T23:43:52.214Z,3.00
2022-07-25T23:46:27.605Z,2.42
2022-07-25T23:48:56.681Z,2.33
2022-07-25T23:51:25.287Z,1.70
2022-07-25T23:53:53.804Z,2.75
2022-07-25T23:56:22.650Z,1.83
2022-07-25T23:58:51.267Z,2.45
